Detall de PIREP

Printer-friendly versionPDF version

[2012/08/05 16:15:00]
Flight IATA:CT0001
Pilot Number:044
Company ICAO:CAT
Aircraft Type:BE20/A
PAX:6
Departing Airport: LEVC
Destination Airport: LERS
Alternate Airport:LEBL
Online: VATSIM
Route:SOPET B28 EBROX
Flight Level:F140
No Slew and time accel
No pause
Crash detect
Detect pilot in Cockpit between each 30 and 45 minutes
16:15 Zero fuel Weight: 8737 Lbs, Fuel Weight: 3617 Lbs
16:15 VATSIM:LEVC 051600Z 11010KT 080V150 9999 FEW025 30/20 Q1006 NOSIG
16:15 VATSIM:LERS 051600Z 15007KT 080V200 9999 SCT035 26/20 Q1008
16:16 VOICE CATALONIAN
16:19 Parking Brakes off
16:31 Take-off
16:31 Take off Weight: 12324 Lbs
16:31 Wind: 133º @ 010 Knots Heading: 116º
16:31 POS N39º 29´ 24´´ W000º 29´ 03´´
16:31 Gear Up: 130 Knots
16:31 Flaps:1 at 130 Knots
16:31 Flaps:0 at 135 Knots
16:40 TOC
16:40 Fuel Weight: 3444 Lb
16:46 Wind:120º@020 Knots Heading: 049º Ground Speed:225 Knots Altitude 13795 ft
16:57 TOD
16:57 Fuel Weight: 3280 Lb
17:01 Wind:149º@013 Knots Heading: 037º Ground Speed: 233 Knots Altitude 9852 ft
17:16 Wind:152º@008 Knots Heading: 237º Ground Speed: 219 Knots Altitude 3838 ft
17:18 Flaps:1 at 155 Knots
17:19 Flaps:2 at 132 Knots
17:19 Flaps:1 at 132 Knots
17:19 Gear Down: 132 Knots
17:20 Flaps:2 at 143 Knots
17:22 TouchDown:Rate -128 ft/min Speed: 110 Knots
17:22 VATSIM:LERS 051700Z 16004KT 110V230 9999 SCT035 26/20 Q1007
17:22 Land
17:22 Wind:175º@004 Knots
17:22 Heading: 247º
17:22 Flight Duration: 00:51
17:22 Landing Weight: 11852 Lbs
17:22 POS N41º 08´ 45´´ E001º 09´ 46´´
17:24 Parking brakes on
17:24 Block to Block Duration: 01:05
17:24 Final Fuel: 3106 Lbls
17:24 Spent Fuel: 511 Lbls
17:24 Flight Length: 177 NM
17:24 TOD Land Length: 85 NM

Exportar CSV

Powered by Drupal - Modified by Danger4k